Flight Track Log - Related Links

Times and Time Zones

All times are in EDT time to prevent confusion due to time zone crossing. See the N960DL flight status page for this flight to view local times or setup timezone preferences in your user account.

Time Position Orientation Groundspeed Altitude Reporting Facility
EDT Latitude Longitude Course Direction KTS MPH feet Rate Location/Type
Thu 06:16:41 PM 33.6500 -84.3833 339° North 171 197 2,100  Level Atlanta TRACON
Thu 06:17:41 PM 33.6500 -84.3167 90° East 230 265 3,100 1,850 Climbing Atlanta TRACON
Thu 06:18:41 PM 33.6833 -84.2333 64° Northeast 278 320 5,800 2,300 Climbing Atlanta TRACON
Thu 06:19:00 PM 33.8397 -84.1731 320° Northwest  Level FlightAware Approximate
Thu 06:20:00 PM 33.9357 -84.2677 339° North  Level FlightAware Approximate
Thu 06:20:41 PM 33.8233 -84.1839 16° North 312 359 10,000  Level Atlanta Center
Thu 06:21:00 PM 34.0518 -84.3205 339° North  Level FlightAware Approximate
Thu 06:21:41 PM 33.9131 -84.2492 329° Northwest 349 402 10,200  Level Atlanta Center
Thu 06:22:41 PM 34.0153 -84.3069 335° Northwest 385 443 12,700 2,350 Climbing Atlanta Center
Thu 06:23:41 PM 34.1111 -84.3475 341° North 402 463 14,900 2,400 Climbing Atlanta Center
Thu 06:24:41 PM 34.2425 -84.3981 342° North 432 497 17,500 2,250 Climbing Atlanta Center
Thu 06:25:41 PM 34.3656 -84.4214 351° North 439 505 19,400 1,850 Climbing Atlanta Center
Thu 06:26:41 PM 34.4950 -84.4169 North 452 520 21,200 1,600 Climbing Atlanta Center
Thu 06:27:41 PM 34.6161 -84.4147 North 467 537 22,600 1,633 Climbing Atlanta Center
Thu 06:29:00 PM 34.7791 -84.4000 North  Level FlightAware Approximate
Thu 06:29:41 PM 34.8831 -84.4111 North 476 548 26,100  Level Atlanta Center
Thu 06:30:41 PM 35.0125 -84.4089 North 471 542 27,000 450 Climbing Atlanta Center
Thu 06:31:41 PM 35.1461 -84.4044 North 471 542 27,000  Level Atlanta Center
Thu 06:32:41 PM 35.2775 -84.4025 North 471 542 27,000  Level Atlanta Center
Thu 06:33:41 PM 35.4089 -84.3956 North 471 542 27,000 100 Level Atlanta Center
Thu 06:34:41 PM 35.5425 -84.3911 North 476 548 27,200 500 Climbing Atlanta Center
Thu 06:35:41 PM 35.6761 -84.3889 North 476 548 28,000 400 Climbing Atlanta Center
Thu 06:36:41 PM 35.8075 -84.3869 North 476 548 28,000  Level Atlanta Center
Thu 06:37:41 PM 35.9514 -84.3850 North 471 542 28,000 310 Level Atlanta Center
Thu 06:39:16 PM 36.1389 -84.3756 North 474 545 28,800 1,115 Climbing Indianapolis Center
Thu 06:40:17 PM 36.2942 -84.3717 North 469 540 30,900 1,561 Climbing Indianapolis Center
Thu 06:41:19 PM 36.4203 -84.3694 North 458 527 32,000 1,016 Climbing Indianapolis Center
Thu 06:42:21 PM 36.5514 -84.3667 North 452 520 33,000 774 Climbing Indianapolis Center
Thu 06:43:23 PM 36.6786 -84.3636 North 453 521 33,600 290 Climbing Indianapolis Center
Thu 06:44:25 PM 36.8053 -84.3614 North 451 519 33,600 -677 Level Indianapolis Center
Thu 06:45:27 PM 36.9292 -84.3767 354° North 445 512 32,200 -774 Descending Indianapolis Center
Thu 06:46:29 PM 37.0517 -84.4033 350° North 446 513 32,000 -581 Descending Indianapolis Center
Thu 06:47:31 PM 37.1769 -84.4244 352° North 455 524 31,000 -488 Descending Indianapolis Center
Thu 06:48:32 PM 37.3272 -84.3997 North 465 535 31,000  Level Indianapolis Center
Thu 06:49:34 PM 37.4575 -84.3922 North 465 535 31,000  Level Indianapolis Center
Thu 06:50:36 PM 37.5886 -84.3836 North 468 539 31,000 -435 Level Indianapolis Center
Thu 06:51:38 PM 37.7192 -84.3750 North 467 537 30,100 -484 Descending Indianapolis Center
Thu 06:52:40 PM 37.8500 -84.3658 North 470 541 30,000 -244 Descending Indianapolis Center
Thu 06:53:41 PM 37.9822 -84.3569 North 472 543 29,600 -2,146 Descending Indianapolis Center
Thu 06:54:43 PM 38.1150 -84.3472 North 479 551 25,600 -2,710 Descending Indianapolis Center
Thu 06:55:45 PM 38.2783 -84.3356 North 500 575 24,000 -1,366 Descending Indianapolis Center
Thu 06:56:46 PM 38.4122 -84.3264 North 486 559 22,800 -2,341 Descending Indianapolis Center
Thu 06:57:48 PM 38.5436 -84.3172 North 474 545 19,200 -3,290 Descending Indianapolis Center
Thu 06:58:50 PM 38.6736 -84.3150 North 469 540 16,000 -2,732 Descending Indianapolis Center
Thu 06:59:51 PM 38.7908 -84.3694 340° North 436 502 13,600 -2,208 Descending Indianapolis Center
Thu 07:00:36 PM 38.8833 -84.4000 346° North 417 480 12,100 -914 Descending Cincinnati TRACON
Thu 07:01:36 PM 38.9833 -84.4500 339° North 408 470 12,000 -50 Descending Cincinnati TRACON
Thu 07:02:36 PM 39.1000 -84.5000 342° North 407 468 12,000 -300 Level Cincinnati TRACON
Thu 07:03:36 PM 39.2000 -84.5500 339° North 356 410 11,400 -659 Descending Cincinnati TRACON
Thu 07:03:58 PM 39.2183 -84.5417 19° North 383 441 11,100 -940 Descending Indianapolis Center
Thu 07:04:59 PM 39.3036 -84.4792 30° Northeast 358 412 10,100 -537 Descending Indianapolis Center
Thu 07:06:01 PM 39.3828 -84.4189 30° Northeast 341 392 10,000 -97 Descending Indianapolis Center
Thu 07:07:03 PM 39.4758 -84.3475 31° Northeast 332 382 9,900 -49 Descending Indianapolis Center
Thu 07:08:04 PM 39.5706 -84.3414 North 335 386 9,900  Level Indianapolis Center
Thu 07:09:06 PM 39.6656 -84.3333 North 338 389 9,900  Level Indianapolis Center
Thu 07:10:07 PM 39.7625 -84.3242 North 341 392 9,900  Level Indianapolis Center
Thu 07:11:09 PM 39.8536 -84.3175 North 336 387 9,900 -1,024 Level Indianapolis Center
Thu 07:12:10 PM 39.9378 -84.3283 354° North 315 362 7,800 -2,439 Descending Indianapolis Center
Thu 07:13:12 PM 40.0231 -84.3367 356° North 306 352 4,900 -2,806 Descending Indianapolis Center

Login

Don't have an account? Register now (free) for customized features, flight alerts, and more!